sensor_id;sensor_type;location;lat;lon;timestamp;P1;durP1;ratioP1;P2;durP2;ratioP2
31994;SDS011;51311;50.870;7.048;2022-07-29T00:01:44;0.30;;;0.10;;
31994;SDS011;51311;50.870;7.048;2022-07-29T00:05:44;1.10;;;0.30;;
31994;SDS011;51311;50.870;7.048;2022-07-29T00:09:45;0.40;;;0.20;;
31994;SDS011;51311;50.870;7.048;2022-07-29T00:13:45;0.20;;;0.20;;
31994;SDS011;51311;50.870;7.048;2022-07-29T00:17:45;1.20;;;0.40;;
31994;SDS011;51311;50.870;7.048;2022-07-29T00:21:45;0.60;;;0.30;;
31994;SDS011;51311;50.870;7.048;2022-07-29T00:25:45;0.80;;;0.30;;
31994;SDS011;51311;50.870;7.048;2022-07-29T00:29:45;0.30;;;0.20;;
31994;SDS011;51311;50.870;7.048;2022-07-29T00:33:45;0.30;;;0.20;;
31994;SDS011;51311;50.870;7.048;2022-07-29T00:37:46;0.70;;;0.20;;
31994;SDS011;51311;50.870;7.048;2022-07-29T00:41:46;1.00;;;0.20;;
31994;SDS011;51311;50.870;7.048;2022-07-29T00:45:46;1.40;;;0.30;;
31994;SDS011;51311;50.870;7.048;2022-07-29T00:49:46;0.60;;;0.20;;
31994;SDS011;51311;50.870;7.048;2022-07-29T00:53:46;0.60;;;0.30;;
31994;SDS011;51311;50.870;7.048;2022-07-29T00:57:46;0.30;;;0.30;;
31994;SDS011;51311;50.870;7.048;2022-07-29T01:01:47;1.30;;;0.40;;
31994;SDS011;51311;50.870;7.048;2022-07-29T01:05:47;0.40;;;0.20;;
31994;SDS011;51311;50.870;7.048;2022-07-29T01:09:47;1.00;;;0.40;;
31994;SDS011;51311;50.870;7.048;2022-07-29T01:13:47;0.60;;;0.20;;
31994;SDS011;51311;50.870;7.048;2022-07-29T01:17:50;0.30;;;0.20;;
31994;SDS011;51311;50.870;7.048;2022-07-29T01:21:51;0.60;;;0.20;;
31994;SDS011;51311;50.870;7.048;2022-07-29T01:25:53;0.40;;;0.30;;
31994;SDS011;51311;50.870;7.048;2022-07-29T01:29:49;0.80;;;0.30;;
31994;SDS011;51311;50.870;7.048;2022-07-29T01:33:50;0.40;;;0.20;;
31994;SDS011;51311;50.870;7.048;2022-07-29T01:37:50;0.40;;;0.30;;
31994;SDS011;51311;50.870;7.048;2022-07-29T01:41:50;0.30;;;0.20;;
31994;SDS011;51311;50.870;7.048;2022-07-29T01:45:51;0.30;;;0.20;;
31994;SDS011;51311;50.870;7.048;2022-07-29T01:49:50;1.00;;;0.40;;
31994;SDS011;51311;50.870;7.048;2022-07-29T01:53:50;0.50;;;0.30;;
31994;SDS011;51311;50.870;7.048;2022-07-29T01:57:49;0.40;;;0.20;;
31994;SDS011;51311;50.870;7.048;2022-07-29T02:01:49;0.50;;;0.30;;
31994;SDS011;51311;50.870;7.048;2022-07-29T02:05:49;0.70;;;0.30;;
31994;SDS011;51311;50.870;7.048;2022-07-29T02:09:49;1.10;;;0.50;;
31994;SDS011;51311;50.870;7.048;2022-07-29T02:13:49;0.80;;;0.40;;
31994;SDS011;51311;50.870;7.048;2022-07-29T02:17:52;0.30;;;0.10;;
31994;SDS011;51311;50.870;7.048;2022-07-29T02:21:50;0.80;;;0.40;;
31994;SDS011;51311;50.870;7.048;2022-07-29T02:25:51;0.30;;;0.30;;
31994;SDS011;51311;50.870;7.048;2022-07-29T02:29:50;0.90;;;0.50;;
31994;SDS011;51311;50.870;7.048;2022-07-29T02:33:51;0.50;;;0.30;;
31994;SDS011;51311;50.870;7.048;2022-07-29T02:37:50;0.50;;;0.30;;
31994;SDS011;51311;50.870;7.048;2022-07-29T02:41:51;0.30;;;0.20;;
31994;SDS011;51311;50.870;7.048;2022-07-29T02:45:51;0.80;;;0.40;;
31994;SDS011;51311;50.870;7.048;2022-07-29T02:49:53;0.70;;;0.50;;
31994;SDS011;51311;50.870;7.048;2022-07-29T02:53:51;0.70;;;0.30;;
31994;SDS011;51311;50.870;7.048;2022-07-29T02:57:54;0.70;;;0.40;;
31994;SDS011;51311;50.870;7.048;2022-07-29T03:01:51;0.60;;;0.30;;
31994;SDS011;51311;50.870;7.048;2022-07-29T03:05:53;0.70;;;0.30;;
31994;SDS011;51311;50.870;7.048;2022-07-29T03:09:52;0.50;;;0.30;;
31994;SDS011;51311;50.870;7.048;2022-07-29T03:13:52;0.30;;;0.20;;
31994;SDS011;51311;50.870;7.048;2022-07-29T03:17:52;0.90;;;0.50;;
31994;SDS011;51311;50.870;7.048;2022-07-29T03:21:52;0.50;;;0.30;;
31994;SDS011;51311;50.870;7.048;2022-07-29T03:25:52;0.20;;;0.20;;
31994;SDS011;51311;50.870;7.048;2022-07-29T03:29:53;1.20;;;0.30;;
31994;SDS011;51311;50.870;7.048;2022-07-29T03:33:52;1.10;;;0.40;;
31994;SDS011;51311;50.870;7.048;2022-07-29T03:37:53;0.80;;;0.40;;
31994;SDS011;51311;50.870;7.048;2022-07-29T03:41:54;0.70;;;0.30;;
31994;SDS011;51311;50.870;7.048;2022-07-29T03:45:53;0.80;;;0.40;;
31994;SDS011;51311;50.870;7.048;2022-07-29T03:49:54;1.10;;;0.40;;
31994;SDS011;51311;50.870;7.048;2022-07-29T03:53:53;0.60;;;0.30;;
31994;SDS011;51311;50.870;7.048;2022-07-29T03:57:53;0.60;;;0.30;;
31994;SDS011;51311;50.870;7.048;2022-07-29T04:01:55;1.00;;;0.30;;
31994;SDS011;51311;50.870;7.048;2022-07-29T04:06:01;2.60;;;0.50;;
31994;SDS011;51311;50.870;7.048;2022-07-29T04:09:54;0.80;;;0.30;;
31994;SDS011;51311;50.870;7.048;2022-07-29T04:13:54;0.70;;;0.30;;
31994;SDS011;51311;50.870;7.048;2022-07-29T04:17:55;0.90;;;0.40;;
31994;SDS011;51311;50.870;7.048;2022-07-29T04:21:54;0.50;;;0.30;;
31994;SDS011;51311;50.870;7.048;2022-07-29T04:25:55;0.70;;;0.40;;
31994;SDS011;51311;50.870;7.048;2022-07-29T04:29:55;0.70;;;0.40;;
31994;SDS011;51311;50.870;7.048;2022-07-29T04:33:55;0.90;;;0.50;;
31994;SDS011;51311;50.870;7.048;2022-07-29T04:37:55;0.80;;;0.40;;
31994;SDS011;51311;50.870;7.048;2022-07-29T04:41:55;0.40;;;0.30;;
31994;SDS011;51311;50.870;7.048;2022-07-29T04:45:55;0.80;;;0.40;;
31994;SDS011;51311;50.870;7.048;2022-07-29T04:49:55;0.30;;;0.10;;
31994;SDS011;51311;50.870;7.048;2022-07-29T04:53:56;0.60;;;0.40;;
31994;SDS011;51311;50.870;7.048;2022-07-29T04:57:56;0.80;;;0.40;;
31994;SDS011;51311;50.870;7.048;2022-07-29T05:01:56;0.60;;;0.20;;
31994;SDS011;51311;50.870;7.048;2022-07-29T05:05:56;0.70;;;0.40;;
31994;SDS011;51311;50.870;7.048;2022-07-29T05:09:56;0.90;;;0.50;;
31994;SDS011;51311;50.870;7.048;2022-07-29T05:13:56;0.50;;;0.20;;
31994;SDS011;51311;50.870;7.048;2022-07-29T05:17:57;0.60;;;0.30;;
31994;SDS011;51311;50.870;7.048;2022-07-29T05:21:57;0.50;;;0.30;;
31994;SDS011;51311;50.870;7.048;2022-07-29T05:25:57;0.40;;;0.30;;
31994;SDS011;51311;50.870;7.048;2022-07-29T05:29:57;0.50;;;0.30;;
31994;SDS011;51311;50.870;7.048;2022-07-29T05:33:57;0.60;;;0.40;;
31994;SDS011;51311;50.870;7.048;2022-07-29T05:41:58;0.50;;;0.30;;
31994;SDS011;51311;50.870;7.048;2022-07-29T05:45:58;0.30;;;0.20;;
31994;SDS011;51311;50.870;7.048;2022-07-29T05:49:58;5.30;;;0.70;;
31994;SDS011;51311;50.870;7.048;2022-07-29T05:53:58;1.40;;;0.50;;
31994;SDS011;51311;50.870;7.048;2022-07-29T05:57:58;2.00;;;0.50;;
31994;SDS011;51311;50.870;7.048;2022-07-29T06:01:58;0.90;;;0.60;;
31994;SDS011;51311;50.870;7.048;2022-07-29T06:05:59;1.90;;;0.60;;
31994;SDS011;51311;50.870;7.048;2022-07-29T06:09:59;5.40;;;0.70;;
31994;SDS011;51311;50.870;7.048;2022-07-29T06:13:59;2.30;;;1.10;;
31994;SDS011;51311;50.870;7.048;2022-07-29T06:17:59;4.00;;;0.60;;
31994;SDS011;51311;50.870;7.048;2022-07-29T06:21:59;3.30;;;0.60;;
31994;SDS011;51311;50.870;7.048;2022-07-29T06:26:00;1.80;;;0.70;;
31994;SDS011;51311;50.870;7.048;2022-07-29T06:30:00;5.70;;;0.80;;
31994;SDS011;51311;50.870;7.048;2022-07-29T06:34:00;2.20;;;0.90;;
31994;SDS011;51311;50.870;7.048;2022-07-29T06:38:01;1.80;;;0.60;;
31994;SDS011;51311;50.870;7.048;2022-07-29T06:42:01;3.70;;;1.00;;
31994;SDS011;51311;50.870;7.048;2022-07-29T06:46:02;1.80;;;0.80;;
31994;SDS011;51311;50.870;7.048;2022-07-29T06:50:01;1.40;;;0.50;;
31994;SDS011;51311;50.870;7.048;2022-07-29T06:54:02;1.50;;;0.50;;
31994;SDS011;51311;50.870;7.048;2022-07-29T06:58:02;3.50;;;0.90;;
31994;SDS011;51311;50.870;7.048;2022-07-29T07:02:02;2.60;;;0.70;;
31994;SDS011;51311;50.870;7.048;2022-07-29T07:06:02;3.30;;;0.70;;
31994;SDS011;51311;50.870;7.048;2022-07-29T07:10:02;1.80;;;0.70;;
31994;SDS011;51311;50.870;7.048;2022-07-29T07:14:03;1.10;;;0.50;;
31994;SDS011;51311;50.870;7.048;2022-07-29T07:18:03;4.60;;;1.20;;
31994;SDS011;51311;50.870;7.048;2022-07-29T07:22:03;2.70;;;0.90;;
31994;SDS011;51311;50.870;7.048;2022-07-29T07:26:03;4.20;;;0.60;;
31994;SDS011;51311;50.870;7.048;2022-07-29T07:30:04;4.40;;;1.00;;
31994;SDS011;51311;50.870;7.048;2022-07-29T07:34:04;2.80;;;0.90;;
31994;SDS011;51311;50.870;7.048;2022-07-29T07:42:04;2.20;;;0.90;;
31994;SDS011;51311;50.870;7.048;2022-07-29T07:46:05;5.10;;;1.10;;
31994;SDS011;51311;50.870;7.048;2022-07-29T07:50:05;2.70;;;1.10;;
31994;SDS011;51311;50.870;7.048;2022-07-29T07:54:05;2.70;;;0.80;;
31994;SDS011;51311;50.870;7.048;2022-07-29T07:58:05;1.70;;;1.00;;
31994;SDS011;51311;50.870;7.048;2022-07-29T08:02:06;1.80;;;0.90;;
31994;SDS011;51311;50.870;7.048;2022-07-29T08:06:06;1.50;;;0.70;;
31994;SDS011;51311;50.870;7.048;2022-07-29T08:10:06;3.50;;;0.80;;
31994;SDS011;51311;50.870;7.048;2022-07-29T08:14:06;2.80;;;0.80;;
31994;SDS011;51311;50.870;7.048;2022-07-29T08:18:06;1.90;;;0.50;;
31994;SDS011;51311;50.870;7.048;2022-07-29T08:22:07;3.70;;;0.70;;
31994;SDS011;51311;50.870;7.048;2022-07-29T08:26:07;1.50;;;0.70;;
31994;SDS011;51311;50.870;7.048;2022-07-29T08:30:07;2.70;;;0.70;;
31994;SDS011;51311;50.870;7.048;2022-07-29T08:34:07;1.40;;;0.90;;
31994;SDS011;51311;50.870;7.048;2022-07-29T08:38:08;3.80;;;0.80;;
31994;SDS011;51311;50.870;7.048;2022-07-29T08:42:08;5.30;;;0.90;;
31994;SDS011;51311;50.870;7.048;2022-07-29T08:46:08;7.10;;;1.20;;
31994;SDS011;51311;50.870;7.048;2022-07-29T08:50:09;3.20;;;0.80;;
31994;SDS011;51311;50.870;7.048;2022-07-29T08:54:09;7.60;;;2.20;;
31994;SDS011;51311;50.870;7.048;2022-07-29T08:58:09;4.40;;;1.20;;
31994;SDS011;51311;50.870;7.048;2022-07-29T09:02:11;2.50;;;0.90;;
31994;SDS011;51311;50.870;7.048;2022-07-29T09:06:12;10.20;;;1.10;;
31994;SDS011;51311;50.870;7.048;2022-07-29T09:10:10;1.70;;;0.90;;
31994;SDS011;51311;50.870;7.048;2022-07-29T09:14:11;5.70;;;1.10;;
31994;SDS011;51311;50.870;7.048;2022-07-29T09:18:10;6.10;;;0.90;;
31994;SDS011;51311;50.870;7.048;2022-07-29T09:22:10;3.20;;;0.90;;
31994;SDS011;51311;50.870;7.048;2022-07-29T09:26:11;2.10;;;0.90;;
31994;SDS011;51311;50.870;7.048;2022-07-29T09:30:13;1.40;;;0.60;;
31994;SDS011;51311;50.870;7.048;2022-07-29T09:34:12;2.20;;;0.60;;
31994;SDS011;51311;50.870;7.048;2022-07-29T09:38:12;1.50;;;0.50;;
31994;SDS011;51311;50.870;7.048;2022-07-29T09:42:12;2.90;;;0.90;;
31994;SDS011;51311;50.870;7.048;2022-07-29T09:46:12;2.00;;;0.60;;
31994;SDS011;51311;50.870;7.048;2022-07-29T09:50:12;5.40;;;0.90;;
31994;SDS011;51311;50.870;7.048;2022-07-29T09:54:25;4.20;;;1.10;;
31994;SDS011;51311;50.870;7.048;2022-07-29T10:02:13;2.30;;;1.00;;
31994;SDS011;51311;50.870;7.048;2022-07-29T10:06:13;3.30;;;1.80;;
31994;SDS011;51311;50.870;7.048;2022-07-29T10:10:28;3.20;;;0.90;;
31994;SDS011;51311;50.870;7.048;2022-07-29T10:14:14;3.10;;;1.20;;
31994;SDS011;51311;50.870;7.048;2022-07-29T10:18:14;3.70;;;1.10;;
31994;SDS011;51311;50.870;7.048;2022-07-29T10:22:14;4.90;;;1.10;;
31994;SDS011;51311;50.870;7.048;2022-07-29T10:26:14;4.90;;;1.20;;
31994;SDS011;51311;50.870;7.048;2022-07-29T10:30:15;3.40;;;1.10;;
31994;SDS011;51311;50.870;7.048;2022-07-29T10:34:19;3.50;;;1.60;;
31994;SDS011;51311;50.870;7.048;2022-07-29T10:38:27;6.80;;;1.40;;
31994;SDS011;51311;50.870;7.048;2022-07-29T10:42:17;5.20;;;1.30;;
31994;SDS011;51311;50.870;7.048;2022-07-29T10:46:15;3.80;;;1.00;;
31994;SDS011;51311;50.870;7.048;2022-07-29T10:50:16;1.60;;;0.80;;
31994;SDS011;51311;50.870;7.048;2022-07-29T10:54:17;3.70;;;1.10;;
31994;SDS011;51311;50.870;7.048;2022-07-29T10:58:17;2.40;;;1.00;;
31994;SDS011;51311;50.870;7.048;2022-07-29T11:06:16;1.60;;;0.70;;
31994;SDS011;51311;50.870;7.048;2022-07-29T11:14:17;4.20;;;0.80;;
31994;SDS011;51311;50.870;7.048;2022-07-29T11:18:17;4.20;;;0.90;;
31994;SDS011;51311;50.870;7.048;2022-07-29T11:22:36;1.30;;;0.80;;
31994;SDS011;51311;50.870;7.048;2022-07-29T11:26:18;3.30;;;0.90;;
31994;SDS011;51311;50.870;7.048;2022-07-29T11:30:17;1.70;;;0.60;;
31994;SDS011;51311;50.870;7.048;2022-07-29T11:38:25;1.40;;;0.90;;
31994;SDS011;51311;50.870;7.048;2022-07-29T11:46:41;1.90;;;0.80;;
31994;SDS011;51311;50.870;7.048;2022-07-29T11:50:32;2.00;;;0.70;;
31994;SDS011;51311;50.870;7.048;2022-07-29T11:54:22;2.50;;;0.70;;
31994;SDS011;51311;50.870;7.048;2022-07-29T11:58:22;2.20;;;0.80;;
31994;SDS011;51311;50.870;7.048;2022-07-29T12:02:18;3.10;;;0.70;;
31994;SDS011;51311;50.870;7.048;2022-07-29T12:06:19;1.70;;;0.60;;
31994;SDS011;51311;50.870;7.048;2022-07-29T12:10:19;1.40;;;0.70;;
31994;SDS011;51311;50.870;7.048;2022-07-29T12:14:32;1.50;;;0.70;;
31994;SDS011;51311;50.870;7.048;2022-07-29T12:18:19;1.70;;;0.80;;
31994;SDS011;51311;50.870;7.048;2022-07-29T12:22:27;1.00;;;0.40;;
31994;SDS011;51311;50.870;7.048;2022-07-29T12:26:19;2.60;;;0.60;;
31994;SDS011;51311;50.870;7.048;2022-07-29T12:30:20;1.00;;;0.50;;
31994;SDS011;51311;50.870;7.048;2022-07-29T12:34:20;2.40;;;1.00;;
31994;SDS011;51311;50.870;7.048;2022-07-29T12:38:20;1.00;;;0.50;;
31994;SDS011;51311;50.870;7.048;2022-07-29T12:42:20;1.20;;;0.60;;
31994;SDS011;51311;50.870;7.048;2022-07-29T12:54:20;0.80;;;0.50;;
31994;SDS011;51311;50.870;7.048;2022-07-29T12:58:41;2.20;;;0.60;;
31994;SDS011;51311;50.870;7.048;2022-07-29T13:02:21;1.90;;;0.60;;
31994;SDS011;51311;50.870;7.048;2022-07-29T13:10:21;2.40;;;0.60;;
31994;SDS011;51311;50.870;7.048;2022-07-29T13:14:35;1.00;;;0.40;;
31994;SDS011;51311;50.870;7.048;2022-07-29T13:18:28;1.40;;;0.80;;
31994;SDS011;51311;50.870;7.048;2022-07-29T13:22:23;1.90;;;0.70;;
31994;SDS011;51311;50.870;7.048;2022-07-29T13:26:22;1.50;;;0.50;;
31994;SDS011;51311;50.870;7.048;2022-07-29T13:30:22;3.10;;;0.70;;
31994;SDS011;51311;50.870;7.048;2022-07-29T13:34:22;1.70;;;0.70;;
31994;SDS011;51311;50.870;7.048;2022-07-29T13:38:22;1.70;;;0.60;;
31994;SDS011;51311;50.870;7.048;2022-07-29T13:42:22;1.30;;;0.60;;
31994;SDS011;51311;50.870;7.048;2022-07-29T13:46:22;2.00;;;0.80;;
31994;SDS011;51311;50.870;7.048;2022-07-29T13:50:23;0.90;;;0.60;;
31994;SDS011;51311;50.870;7.048;2022-07-29T13:54:23;1.30;;;0.60;;
31994;SDS011;51311;50.870;7.048;2022-07-29T13:58:23;1.00;;;0.70;;
31994;SDS011;51311;50.870;7.048;2022-07-29T14:02:23;1.10;;;0.70;;
31994;SDS011;51311;50.870;7.048;2022-07-29T14:06:23;1.40;;;0.60;;
31994;SDS011;51311;50.870;7.048;2022-07-29T14:10:23;1.60;;;0.50;;
31994;SDS011;51311;50.870;7.048;2022-07-29T14:18:24;1.00;;;0.50;;
31994;SDS011;51311;50.870;7.048;2022-07-29T14:22:24;1.00;;;0.50;;
31994;SDS011;51311;50.870;7.048;2022-07-29T14:26:24;2.30;;;0.50;;
31994;SDS011;51311;50.870;7.048;2022-07-29T14:30:24;1.40;;;0.70;;
31994;SDS011;51311;50.870;7.048;2022-07-29T14:34:24;1.40;;;0.50;;
31994;SDS011;51311;50.870;7.048;2022-07-29T14:38:25;0.90;;;0.40;;
31994;SDS011;51311;50.870;7.048;2022-07-29T14:42:25;1.00;;;0.60;;
31994;SDS011;51311;50.870;7.048;2022-07-29T14:46:25;1.00;;;0.40;;
31994;SDS011;51311;50.870;7.048;2022-07-29T14:50:25;1.70;;;0.60;;
31994;SDS011;51311;50.870;7.048;2022-07-29T14:54:25;1.20;;;0.50;;
31994;SDS011;51311;50.870;7.048;2022-07-29T14:58:25;1.00;;;0.50;;
31994;SDS011;51311;50.870;7.048;2022-07-29T15:02:25;0.80;;;0.40;;
31994;SDS011;51311;50.870;7.048;2022-07-29T15:06:26;1.40;;;0.50;;
31994;SDS011;51311;50.870;7.048;2022-07-29T15:10:26;1.70;;;0.60;;
31994;SDS011;51311;50.870;7.048;2022-07-29T15:14:26;1.50;;;0.60;;
31994;SDS011;51311;50.870;7.048;2022-07-29T15:18:26;0.90;;;0.60;;
31994;SDS011;51311;50.870;7.048;2022-07-29T15:22:26;1.70;;;0.60;;
31994;SDS011;51311;50.870;7.048;2022-07-29T15:26:26;1.20;;;0.60;;
31994;SDS011;51311;50.870;7.048;2022-07-29T15:30:27;1.50;;;0.70;;
31994;SDS011;51311;50.870;7.048;2022-07-29T15:34:27;1.40;;;0.70;;
31994;SDS011;51311;50.870;7.048;2022-07-29T15:38:27;1.30;;;0.50;;
31994;SDS011;51311;50.870;7.048;2022-07-29T15:42:27;0.90;;;0.40;;
31994;SDS011;51311;50.870;7.048;2022-07-29T15:46:27;0.80;;;0.40;;
31994;SDS011;51311;50.870;7.048;2022-07-29T15:54:28;1.90;;;0.80;;
31994;SDS011;51311;50.870;7.048;2022-07-29T15:58:28;0.70;;;0.50;;
31994;SDS011;51311;50.870;7.048;2022-07-29T16:02:28;1.40;;;0.60;;
31994;SDS011;51311;50.870;7.048;2022-07-29T16:06:28;0.90;;;0.60;;
31994;SDS011;51311;50.870;7.048;2022-07-29T16:10:28;0.60;;;0.40;;
31994;SDS011;51311;50.870;7.048;2022-07-29T16:14:28;1.40;;;0.50;;
31994;SDS011;51311;50.870;7.048;2022-07-29T16:18:29;0.80;;;0.50;;
31994;SDS011;51311;50.870;7.048;2022-07-29T16:22:29;0.90;;;0.50;;
31994;SDS011;51311;50.870;7.048;2022-07-29T16:26:29;1.60;;;0.70;;
31994;SDS011;51311;50.870;7.048;2022-07-29T16:30:29;0.60;;;0.40;;
31994;SDS011;51311;50.870;7.048;2022-07-29T16:34:29;1.10;;;0.50;;
31994;SDS011;51311;50.870;7.048;2022-07-29T16:38:29;0.80;;;0.50;;
31994;SDS011;51311;50.870;7.048;2022-07-29T16:42:29;0.90;;;0.60;;
31994;SDS011;51311;50.870;7.048;2022-07-29T16:46:30;0.90;;;0.60;;
31994;SDS011;51311;50.870;7.048;2022-07-29T16:50:30;0.60;;;0.50;;
31994;SDS011;51311;50.870;7.048;2022-07-29T16:54:30;1.80;;;0.60;;
31994;SDS011;51311;50.870;7.048;2022-07-29T16:58:30;1.60;;;0.70;;
31994;SDS011;51311;50.870;7.048;2022-07-29T17:02:30;0.90;;;0.40;;
31994;SDS011;51311;50.870;7.048;2022-07-29T17:06:32;1.30;;;0.50;;
31994;SDS011;51311;50.870;7.048;2022-07-29T17:10:31;1.10;;;0.60;;
31994;SDS011;51311;50.870;7.048;2022-07-29T17:14:31;1.10;;;0.60;;
31994;SDS011;51311;50.870;7.048;2022-07-29T17:18:31;0.90;;;0.50;;
31994;SDS011;51311;50.870;7.048;2022-07-29T17:26:31;1.00;;;0.50;;
31994;SDS011;51311;50.870;7.048;2022-07-29T17:30:31;1.00;;;0.50;;
31994;SDS011;51311;50.870;7.048;2022-07-29T17:34:31;1.60;;;0.70;;
31994;SDS011;51311;50.870;7.048;2022-07-29T17:38:32;0.90;;;0.50;;
31994;SDS011;51311;50.870;7.048;2022-07-29T17:42:32;1.00;;;0.50;;
31994;SDS011;51311;50.870;7.048;2022-07-29T17:46:32;1.10;;;0.50;;
31994;SDS011;51311;50.870;7.048;2022-07-29T17:50:32;0.80;;;0.60;;
31994;SDS011;51311;50.870;7.048;2022-07-29T17:54:32;0.70;;;0.40;;
31994;SDS011;51311;50.870;7.048;2022-07-29T17:58:33;1.20;;;0.60;;
31994;SDS011;51311;50.870;7.048;2022-07-29T18:02:33;1.30;;;0.50;;
31994;SDS011;51311;50.870;7.048;2022-07-29T18:06:33;1.00;;;0.50;;
31994;SDS011;51311;50.870;7.048;2022-07-29T18:10:33;1.30;;;0.40;;
31994;SDS011;51311;50.870;7.048;2022-07-29T18:14:33;1.30;;;0.40;;
31994;SDS011;51311;50.870;7.048;2022-07-29T18:18:33;1.00;;;0.60;;
31994;SDS011;51311;50.870;7.048;2022-07-29T18:22:33;1.70;;;0.60;;
31994;SDS011;51311;50.870;7.048;2022-07-29T18:26:34;2.20;;;0.80;;
31994;SDS011;51311;50.870;7.048;2022-07-29T18:30:34;1.20;;;0.60;;
31994;SDS011;51311;50.870;7.048;2022-07-29T18:34:34;1.10;;;0.60;;
31994;SDS011;51311;50.870;7.048;2022-07-29T18:38:34;0.80;;;0.40;;
31994;SDS011;51311;50.870;7.048;2022-07-29T18:42:34;1.70;;;0.70;;
31994;SDS011;51311;50.870;7.048;2022-07-29T18:46:34;0.80;;;0.40;;
31994;SDS011;51311;50.870;7.048;2022-07-29T18:50:35;1.50;;;0.40;;
31994;SDS011;51311;50.870;7.048;2022-07-29T18:54:35;1.10;;;0.50;;
31994;SDS011;51311;50.870;7.048;2022-07-29T18:58:35;1.60;;;0.60;;
31994;SDS011;51311;50.870;7.048;2022-07-29T19:02:35;0.80;;;0.40;;
31994;SDS011;51311;50.870;7.048;2022-07-29T19:06:35;1.30;;;0.50;;
31994;SDS011;51311;50.870;7.048;2022-07-29T19:10:35;0.60;;;0.30;;
31994;SDS011;51311;50.870;7.048;2022-07-29T19:14:36;0.80;;;0.40;;
31994;SDS011;51311;50.870;7.048;2022-07-29T19:18:36;0.70;;;0.50;;
31994;SDS011;51311;50.870;7.048;2022-07-29T19:22:36;0.60;;;0.40;;
31994;SDS011;51311;50.870;7.048;2022-07-29T19:26:36;0.80;;;0.30;;
31994;SDS011;51311;50.870;7.048;2022-07-29T19:30:36;0.80;;;0.40;;
31994;SDS011;51311;50.870;7.048;2022-07-29T19:34:36;0.90;;;0.40;;
31994;SDS011;51311;50.870;7.048;2022-07-29T19:38:36;0.70;;;0.40;;
31994;SDS011;51311;50.870;7.048;2022-07-29T19:42:37;0.80;;;0.50;;
31994;SDS011;51311;50.870;7.048;2022-07-29T19:46:37;1.00;;;0.60;;
31994;SDS011;51311;50.870;7.048;2022-07-29T19:50:37;0.90;;;0.40;;
31994;SDS011;51311;50.870;7.048;2022-07-29T19:54:37;1.20;;;0.60;;
31994;SDS011;51311;50.870;7.048;2022-07-29T19:58:37;0.40;;;0.30;;
31994;SDS011;51311;50.870;7.048;2022-07-29T20:02:38;0.80;;;0.50;;
31994;SDS011;51311;50.870;7.048;2022-07-29T20:06:38;1.50;;;0.50;;
31994;SDS011;51311;50.870;7.048;2022-07-29T20:10:38;0.60;;;0.40;;
31994;SDS011;51311;50.870;7.048;2022-07-29T20:14:38;2.90;;;0.50;;
31994;SDS011;51311;50.870;7.048;2022-07-29T20:18:38;0.50;;;0.30;;
31994;SDS011;51311;50.870;7.048;2022-07-29T20:22:38;1.30;;;0.50;;
31994;SDS011;51311;50.870;7.048;2022-07-29T20:26:38;0.70;;;0.50;;
31994;SDS011;51311;50.870;7.048;2022-07-29T20:30:39;1.00;;;0.40;;
31994;SDS011;51311;50.870;7.048;2022-07-29T20:34:39;0.80;;;0.40;;
31994;SDS011;51311;50.870;7.048;2022-07-29T20:38:39;1.00;;;0.40;;
31994;SDS011;51311;50.870;7.048;2022-07-29T20:42:39;0.70;;;0.40;;
31994;SDS011;51311;50.870;7.048;2022-07-29T20:46:40;1.10;;;0.60;;
31994;SDS011;51311;50.870;7.048;2022-07-29T20:50:39;1.10;;;0.40;;
31994;SDS011;51311;50.870;7.048;2022-07-29T20:54:39;0.70;;;0.50;;
31994;SDS011;51311;50.870;7.048;2022-07-29T20:58:40;0.60;;;0.40;;
31994;SDS011;51311;50.870;7.048;2022-07-29T21:02:40;1.00;;;0.50;;
31994;SDS011;51311;50.870;7.048;2022-07-29T21:06:40;1.00;;;0.70;;
31994;SDS011;51311;50.870;7.048;2022-07-29T21:10:40;0.60;;;0.40;;
31994;SDS011;51311;50.870;7.048;2022-07-29T21:14:40;0.70;;;0.40;;
31994;SDS011;51311;50.870;7.048;2022-07-29T21:18:40;1.50;;;0.50;;
31994;SDS011;51311;50.870;7.048;2022-07-29T21:22:41;1.20;;;0.50;;
31994;SDS011;51311;50.870;7.048;2022-07-29T21:26:41;1.60;;;0.50;;
31994;SDS011;51311;50.870;7.048;2022-07-29T21:30:41;0.60;;;0.40;;
31994;SDS011;51311;50.870;7.048;2022-07-29T21:34:41;0.50;;;0.40;;
31994;SDS011;51311;50.870;7.048;2022-07-29T21:38:41;1.20;;;0.60;;
31994;SDS011;51311;50.870;7.048;2022-07-29T21:42:41;1.90;;;0.40;;
31994;SDS011;51311;50.870;7.048;2022-07-29T21:46:41;0.80;;;0.40;;
31994;SDS011;51311;50.870;7.048;2022-07-29T21:50:42;0.70;;;0.40;;
31994;SDS011;51311;50.870;7.048;2022-07-29T21:54:42;1.40;;;0.60;;
31994;SDS011;51311;50.870;7.048;2022-07-29T21:58:42;1.30;;;0.40;;
31994;SDS011;51311;50.870;7.048;2022-07-29T22:02:42;0.80;;;0.40;;
31994;SDS011;51311;50.870;7.048;2022-07-29T22:06:42;0.80;;;0.50;;
31994;SDS011;51311;50.870;7.048;2022-07-29T22:10:42;0.70;;;0.50;;
31994;SDS011;51311;50.870;7.048;2022-07-29T22:14:43;1.00;;;0.50;;
31994;SDS011;51311;50.870;7.048;2022-07-29T22:18:43;0.90;;;0.50;;
31994;SDS011;51311;50.870;7.048;2022-07-29T22:22:43;0.90;;;0.50;;
31994;SDS011;51311;50.870;7.048;2022-07-29T22:26:43;0.80;;;0.50;;
31994;SDS011;51311;50.870;7.048;2022-07-29T22:30:43;0.50;;;0.30;;
31994;SDS011;51311;50.870;7.048;2022-07-29T22:34:43;1.20;;;0.50;;
31994;SDS011;51311;50.870;7.048;2022-07-29T22:38:44;0.90;;;0.40;;
31994;SDS011;51311;50.870;7.048;2022-07-29T22:42:44;0.80;;;0.50;;
31994;SDS011;51311;50.870;7.048;2022-07-29T22:46:44;0.60;;;0.30;;
31994;SDS011;51311;50.870;7.048;2022-07-29T22:50:44;1.00;;;0.50;;
31994;SDS011;51311;50.870;7.048;2022-07-29T22:54:44;0.70;;;0.50;;
31994;SDS011;51311;50.870;7.048;2022-07-29T22:58:45;0.60;;;0.40;;
31994;SDS011;51311;50.870;7.048;2022-07-29T23:02:44;1.20;;;0.40;;
31994;SDS011;51311;50.870;7.048;2022-07-29T23:10:46;0.70;;;0.40;;
31994;SDS011;51311;50.870;7.048;2022-07-29T23:14:46;1.00;;;0.40;;
31994;SDS011;51311;50.870;7.048;2022-07-29T23:18:47;0.80;;;0.40;;
31994;SDS011;51311;50.870;7.048;2022-07-29T23:22:47;1.60;;;0.50;;
31994;SDS011;51311;50.870;7.048;2022-07-29T23:26:47;1.30;;;0.60;;
31994;SDS011;51311;50.870;7.048;2022-07-29T23:30:47;1.40;;;0.50;;
31994;SDS011;51311;50.870;7.048;2022-07-29T23:34:47;1.10;;;0.40;;
31994;SDS011;51311;50.870;7.048;2022-07-29T23:38:47;1.20;;;0.60;;
31994;SDS011;51311;50.870;7.048;2022-07-29T23:42:48;0.80;;;0.40;;
31994;SDS011;51311;50.870;7.048;2022-07-29T23:46:48;1.00;;;0.40;;
31994;SDS011;51311;50.870;7.048;2022-07-29T23:50:48;0.70;;;0.50;;
31994;SDS011;51311;50.870;7.048;2022-07-29T23:54:48;0.60;;;0.30;;
31994;SDS011;51311;50.870;7.048;2022-07-29T23:58:48;0.90;;;0.50;;
